createdAt,value
2022-08-08T03:49:09.335Z,24.21
2022-08-08T03:52:00.738Z,24.21
2022-08-08T03:55:56.536Z,23.67
2022-08-08T03:58:37.760Z,23.66
2022-08-08T04:02:12.553Z,23.69
2022-08-08T04:05:10.201Z,23.75
2022-08-08T04:08:32.945Z,23.89
2022-08-08T04:11:58.987Z,23.87
2022-08-08T04:15:04.913Z,23.85
2022-08-08T04:18:09.297Z,23.80
2022-08-08T04:21:22.969Z,23.83
2022-08-08T04:24:30.687Z,24.00
2022-08-08T04:28:02.899Z,24.13
2022-08-08T04:30:58.386Z,24.05
2022-08-08T04:34:03.462Z,23.96
2022-08-08T04:37:07.784Z,24.03
2022-08-08T04:40:12.387Z,24.11
2022-08-08T04:43:17.933Z,24.13
2022-08-08T04:46:25.105Z,24.06
2022-08-08T04:49:28.782Z,24.06
2022-08-08T04:52:58.689Z,23.98
2022-08-08T04:56:04.348Z,23.95
2022-08-08T04:59:06.905Z,23.92
2022-08-08T05:02:13.796Z,23.95
2022-08-08T05:05:20.387Z,23.97
2022-08-08T05:08:40.150Z,23.98
2022-08-08T05:11:47.533Z,23.95
2022-08-08T05:14:59.758Z,24.06
2022-08-08T05:18:02.290Z,23.97
2022-08-08T05:21:08.569Z,24.01
2022-08-08T05:24:16.979Z,24.01
2022-08-08T05:27:24.713Z,23.92
2022-08-08T05:30:28.337Z,23.94
2022-08-08T05:33:48.557Z,23.96
2022-08-08T05:36:54.231Z,23.97
2022-08-08T05:40:04.934Z,23.96
2022-08-08T05:43:38.122Z,24.07
2022-08-08T05:46:34.306Z,24.04
2022-08-08T05:49:38.075Z,24.12
2022-08-08T05:52:42.124Z,24.17
2022-08-08T05:56:07.832Z,24.21
2022-08-08T06:00:00.682Z,24.22
2022-08-08T06:03:06.194Z,24.19
2022-08-08T06:06:11.762Z,24.08
2022-08-08T06:09:58.299Z,24.13
2022-08-08T06:12:56.769Z,24.12
2022-08-08T06:15:58.927Z,24.17
2022-08-08T06:19:02.159Z,24.20
2022-08-08T06:22:32.105Z,24.17
2022-08-08T06:26:34.626Z,24.27
2022-08-08T06:29:26.316Z,24.36
2022-08-08T06:32:32.263Z,24.42
2022-08-08T06:36:08.915Z,24.48
2022-08-08T06:39:00.213Z,24.59
2022-08-08T06:42:12.957Z,24.59
2022-08-08T06:45:16.956Z,24.66
2022-08-08T06:48:19.494Z,24.60
2022-08-08T06:51:25.315Z,24.56
2022-08-08T06:54:49.019Z,24.58
2022-08-08T06:57:54.681Z,24.60
2022-08-08T07:01:01.832Z,24.41
2022-08-08T07:04:52.216Z,24.50
2022-08-08T07:08:09.462Z,24.51
2022-08-08T07:11:21.915Z,24.48
2022-08-08T07:14:49.394Z,24.44
2022-08-08T07:18:34.529Z,24.37
2022-08-08T07:21:31.084Z,24.36
2022-08-08T07:24:51.381Z,24.35
2022-08-08T07:28:07.487Z,24.43
2022-08-08T07:31:11.306Z,24.52
2022-08-08T07:34:20.287Z,24.64
2022-08-08T07:37:56.592Z,24.77
2022-08-08T07:41:04.489Z,24.82
2022-08-08T07:44:33.414Z,24.90
2022-08-08T07:47:38.889Z,25.00
2022-08-08T07:50:43.573Z,25.11
2022-08-08T07:54:02.693Z,25.23
2022-08-08T07:57:30.518Z,25.28
2022-08-08T08:00:43.625Z,25.42
2022-08-08T08:03:55.304Z,25.37
2022-08-08T08:07:00.990Z,25.36
2022-08-08T08:10:04.619Z,25.48
2022-08-08T08:14:08.603Z,25.45
2022-08-08T08:17:18.690Z,25.51
2022-08-08T08:20:30.251Z,25.54
2022-08-08T08:23:40.893Z,25.76
2022-08-08T08:26:46.924Z,25.94
2022-08-08T08:29:55.490Z,26.05
2022-08-08T08:33:00.100Z,26.21
2022-08-08T08:36:19.922Z,26.26
2022-08-08T08:39:24.123Z,26.23
2022-08-08T08:42:31.486Z,26.30
2022-08-08T08:45:39.853Z,26.22
2022-08-08T08:48:49.438Z,26.29
2022-08-08T08:51:53.497Z,26.43
2022-08-08T08:54:59.857Z,26.61
2022-08-08T08:58:06.444Z,26.58
2022-08-08T09:01:15.174Z,26.51
2022-08-08T09:04:31.577Z,26.61
2022-08-08T09:07:52.455Z,26.63
2022-08-08T09:11:08.077Z,26.46
2022-08-08T09:14:12.934Z,26.51
2022-08-08T09:17:19.246Z,26.47
2022-08-08T09:21:57.058Z,26.32
2022-08-08T09:24:04.050Z,26.27
2022-08-08T09:27:14.900Z,26.24
2022-08-08T09:30:27.748Z,26.32
2022-08-08T09:34:06.251Z,26.30
2022-08-08T09:37:57.269Z,26.29
2022-08-08T09:40:40.927Z,26.21
2022-08-08T09:44:06.630Z,26.18
2022-08-08T09:47:26.909Z,26.19
2022-08-08T09:50:37.553Z,26.12
2022-08-08T09:54:01.188Z,26.22
2022-08-08T09:57:17.027Z,26.16
2022-08-08T10:00:53.454Z,26.15
2022-08-08T10:03:46.869Z,26.08
2022-08-08T10:06:58.416Z,26.01
2022-08-08T10:10:03.007Z,26.02
2022-08-08T10:13:26.203Z,26.04
2022-08-08T10:16:39.922Z,26.02
2022-08-08T10:19:46.200Z,25.83
2022-08-08T10:23:02.003Z,25.82
2022-08-08T10:26:04.653Z,26.02
2022-08-08T10:29:58.579Z,26.15
2022-08-08T10:33:02.119Z,26.21
2022-08-08T10:36:20.403Z,26.37
2022-08-08T10:39:31.375Z,26.34
2022-08-08T10:42:48.609Z,26.41
2022-08-08T10:45:56.913Z,26.37
2022-08-08T10:49:01.302Z,26.21
2022-08-08T10:52:05.275Z,26.13
2022-08-08T10:55:14.036Z,26.08
2022-08-08T10:58:17.965Z,26.13
2022-08-08T11:01:21.142Z,26.15
2022-08-08T11:04:29.908Z,25.89
2022-08-08T11:08:31.274Z,25.83
2022-08-08T11:11:07.974Z,25.75
2022-08-08T11:14:27.618Z,25.92
2022-08-08T11:17:59.361Z,26.04
2022-08-08T11:20:57.790Z,26.09
2022-08-08T11:24:09.351Z,26.21
2022-08-08T11:27:20.173Z,26.27
2022-08-08T11:30:31.698Z,26.48
2022-08-08T11:33:53.528Z,26.62
2022-08-08T11:37:00.936Z,26.61
2022-08-08T11:40:22.494Z,26.69
2022-08-08T11:43:38.512Z,26.69
2022-08-08T11:46:42.278Z,26.82
2022-08-08T11:49:45.313Z,26.74
2022-08-08T11:52:53.359Z,26.58
2022-08-08T11:55:55.507Z,26.53
2022-08-08T11:59:05.936Z,26.47
2022-08-08T12:02:31.129Z,26.54
2022-08-08T12:05:33.653Z,26.50
2022-08-08T12:08:37.634Z,26.40
2022-08-08T12:11:42.733Z,26.20
2022-08-08T12:14:44.831Z,26.19
2022-08-08T12:17:57.192Z,26.20
2022-08-08T12:21:02.210Z,26.35
2022-08-08T12:24:11.508Z,26.36
2022-08-08T12:27:18.466Z,26.35
2022-08-08T12:30:31.610Z,26.55
2022-08-08T12:33:37.647Z,26.72
2022-08-08T12:37:05.367Z,26.67
2022-08-08T12:40:23.702Z,26.45
2022-08-08T12:43:43.762Z,26.34
2022-08-08T12:47:01.153Z,26.24
2022-08-08T12:50:11.326Z,26.17
2022-08-08T12:53:22.213Z,26.04
2022-08-08T12:56:38.884Z,25.80
2022-08-08T13:00:05.117Z,25.66
2022-08-08T13:03:24.486Z,25.69
2022-08-08T13:06:26.728Z,25.85
2022-08-08T13:10:05.853Z,25.75
2022-08-08T13:13:27.326Z,25.65
2022-08-08T13:16:33.920Z,25.41
2022-08-08T13:19:50.006Z,25.39
2022-08-08T13:23:26.962Z,25.33
2022-08-08T13:26:15.355Z,25.47
2022-08-08T13:29:17.902Z,25.45
2022-08-08T13:32:25.694Z,25.49
2022-08-08T13:35:29.646Z,25.30
2022-08-08T13:38:41.291Z,25.21
2022-08-08T13:41:54.661Z,25.42
2022-08-08T13:45:02.326Z,25.33
2022-08-08T13:48:15.099Z,25.29
2022-08-08T13:51:24.982Z,25.43
2022-08-08T13:54:49.460Z,25.47
2022-08-08T13:58:08.241Z,25.43
2022-08-08T14:01:19.083Z,25.45
2022-08-08T14:04:27.777Z,25.57
2022-08-08T14:07:33.691Z,25.65
2022-08-08T14:10:40.386Z,25.49
2022-08-08T14:13:59.041Z,25.36
2022-08-08T14:17:05.493Z,25.13
2022-08-08T14:20:14.859Z,25.45
2022-08-08T14:24:07.631Z,25.42
2022-08-08T14:27:16.166Z,25.46
2022-08-08T14:30:18.969Z,25.42
2022-08-08T14:33:26.651Z,25.28
2022-08-08T14:36:40.417Z,25.29
2022-08-08T14:39:49.531Z,25.40
2022-08-08T14:42:55.229Z,25.50
2022-08-08T14:46:05.912Z,25.49
2022-08-08T14:49:20.567Z,25.49
2022-08-08T14:52:46.305Z,25.42
2022-08-08T14:55:50.213Z,25.29
2022-08-08T14:59:03.942Z,25.22
2022-08-08T15:02:30.896Z,25.33
2022-08-08T15:05:42.613Z,25.48
2022-08-08T15:08:54.622Z,25.40
